createdAt,value
2022-08-26T00:04:45.557Z,19.55
2022-08-26T00:24:47.971Z,19.53
2022-08-26T00:44:45.490Z,19.5
2022-08-26T01:04:45.469Z,19.49
2022-08-26T01:24:45.442Z,19.49
2022-08-26T01:44:45.418Z,19.48
2022-08-26T02:04:45.411Z,19.46
2022-08-26T02:24:45.088Z,19.42
2022-08-26T02:44:45.314Z,19.39
2022-08-26T03:04:57.592Z,19.38
2022-08-26T03:24:46.211Z,19.38
2022-08-26T03:44:45.244Z,19.36
2022-08-26T04:04:45.215Z,19.32
2022-08-26T04:24:45.189Z,19.29
2022-08-26T04:44:45.161Z,19.28
2022-08-26T05:04:44.851Z,19.27
2022-08-26T05:24:45.109Z,19.23
2022-08-26T05:44:54.185Z,19.19
2022-08-26T06:04:45.038Z,19.18
2022-08-26T06:24:45.010Z,19.17
2022-08-26T06:44:44.901Z,19.14
2022-08-26T07:04:44.947Z,19.1
2022-08-26T07:24:44.933Z,19.08
2022-08-26T08:04:44.896Z,19.07
2022-08-26T08:24:44.828Z,19.05
2022-08-26T08:44:44.797Z,19.02
2022-08-26T09:04:44.792Z,19
2022-08-26T09:24:48.335Z,18.98
2022-08-26T09:44:44.678Z,18.98
2022-08-26T10:04:44.674Z,18.98
2022-08-26T10:24:44.610Z,18.98
2022-08-26T11:44:49.463Z,18.97
2022-08-26T12:04:44.452Z,18.97
2022-08-26T12:44:53.568Z,18.97
2022-08-26T13:04:44.346Z,18.97
2022-08-26T13:24:44.282Z,18.97
2022-08-26T14:04:44.208Z,18.98
2022-08-26T14:24:44.210Z,18.98
2022-08-26T14:44:44.146Z,18.98
2022-08-26T15:04:44.136Z,18.98
2022-08-26T15:24:44.078Z,18.99
2022-08-26T15:44:44.066Z,19.01
2022-08-26T16:04:44.038Z,19.02
2022-08-26T16:24:43.997Z,19.04
2022-08-26T16:44:43.932Z,19.05
2022-08-26T17:04:46.090Z,19.06
2022-08-26T17:24:43.890Z,19.07
2022-08-26T17:44:43.883Z,19.07
2022-08-26T18:04:43.845Z,19.08
2022-08-26T18:44:43.766Z,19.08
2022-08-26T19:04:43.734Z,19.08
2022-08-26T19:24:43.698Z,19.08
2022-08-26T19:44:43.669Z,19.08
2022-08-26T20:04:43.637Z,19.08
2022-08-26T20:24:43.617Z,19.08
2022-08-26T20:44:43.303Z,19.08
2022-08-26T21:04:43.620Z,19.08
2022-08-26T21:44:43.499Z,19.07
2022-08-26T22:04:46.898Z,19.07
2022-08-26T22:24:43.420Z,19.07
2022-08-26T22:44:43.359Z,19.06
2022-08-26T23:04:43.358Z,19.04
2022-08-26T23:24:42.698Z,19.03
2022-08-26T23:44:43.302Z,19.01
